sensor_id;sensor_type;location;lat;lon;timestamp;P1;durP1;ratioP1;P2;durP2;ratioP2
60919;SDS011;59039;52.108;19.942;2024-02-04T00:02:22;10.60;;;5.70;;
60919;SDS011;59039;52.108;19.942;2024-02-04T00:04:47;14.20;;;5.70;;
60919;SDS011;59039;52.108;19.942;2024-02-04T00:07:12;13.60;;;5.40;;
60919;SDS011;59039;52.108;19.942;2024-02-04T00:09:38;11.70;;;5.50;;
60919;SDS011;59039;52.108;19.942;2024-02-04T00:12:03;10.20;;;5.10;;
60919;SDS011;59039;52.108;19.942;2024-02-04T00:14:28;22.40;;;5.80;;
60919;SDS011;59039;52.108;19.942;2024-02-04T00:16:54;12.10;;;5.80;;
60919;SDS011;59039;52.108;19.942;2024-02-04T00:19:19;10.50;;;4.90;;
60919;SDS011;59039;52.108;19.942;2024-02-04T00:21:44;10.30;;;4.80;;
60919;SDS011;59039;52.108;19.942;2024-02-04T00:24:09;12.90;;;4.50;;
60919;SDS011;59039;52.108;19.942;2024-02-04T00:26:34;10.80;;;4.70;;
60919;SDS011;59039;52.108;19.942;2024-02-04T00:29:00;16.90;;;5.90;;
60919;SDS011;59039;52.108;19.942;2024-02-04T00:31:25;12.70;;;5.40;;
60919;SDS011;59039;52.108;19.942;2024-02-04T00:33:50;14.50;;;5.70;;
60919;SDS011;59039;52.108;19.942;2024-02-04T00:36:15;13.50;;;4.80;;
60919;SDS011;59039;52.108;19.942;2024-02-04T00:38:40;12.20;;;4.40;;
60919;SDS011;59039;52.108;19.942;2024-02-04T00:41:06;21.00;;;5.30;;
60919;SDS011;59039;52.108;19.942;2024-02-04T00:43:31;11.50;;;4.80;;
60919;SDS011;59039;52.108;19.942;2024-02-04T00:45:56;13.70;;;4.90;;
60919;SDS011;59039;52.108;19.942;2024-02-04T00:48:21;10.00;;;4.20;;
60919;SDS011;59039;52.108;19.942;2024-02-04T00:50:46;10.70;;;3.90;;
60919;SDS011;59039;52.108;19.942;2024-02-04T00:53:12;11.80;;;4.50;;
60919;SDS011;59039;52.108;19.942;2024-02-04T00:55:37;9.50;;;4.70;;
60919;SDS011;59039;52.108;19.942;2024-02-04T00:58:02;10.80;;;4.10;;
60919;SDS011;59039;52.108;19.942;2024-02-04T01:00:28;7.40;;;4.10;;
60919;SDS011;59039;52.108;19.942;2024-02-04T01:02:53;9.00;;;3.60;;
60919;SDS011;59039;52.108;19.942;2024-02-04T01:05:18;12.40;;;4.40;;
60919;SDS011;59039;52.108;19.942;2024-02-04T01:07:43;11.70;;;3.90;;
60919;SDS011;59039;52.108;19.942;2024-02-04T01:10:09;8.80;;;3.50;;
60919;SDS011;59039;52.108;19.942;2024-02-04T01:12:35;9.10;;;3.30;;
60919;SDS011;59039;52.108;19.942;2024-02-04T01:15:00;8.80;;;3.70;;
60919;SDS011;59039;52.108;19.942;2024-02-04T01:17:25;8.50;;;3.30;;
60919;SDS011;59039;52.108;19.942;2024-02-04T01:19:51;10.10;;;3.40;;
60919;SDS011;59039;52.108;19.942;2024-02-04T01:22:16;11.60;;;3.80;;
60919;SDS011;59039;52.108;19.942;2024-02-04T01:24:41;7.90;;;3.90;;
60919;SDS011;59039;52.108;19.942;2024-02-04T01:27:06;6.70;;;3.30;;
60919;SDS011;59039;52.108;19.942;2024-02-04T01:29:31;5.30;;;2.70;;
60919;SDS011;59039;52.108;19.942;2024-02-04T01:31:57;12.80;;;4.00;;
60919;SDS011;59039;52.108;19.942;2024-02-04T01:34:22;11.30;;;3.50;;
60919;SDS011;59039;52.108;19.942;2024-02-04T01:36:47;10.30;;;3.40;;
60919;SDS011;59039;52.108;19.942;2024-02-04T01:39:12;14.90;;;4.90;;
60919;SDS011;59039;52.108;19.942;2024-02-04T01:41:37;10.30;;;3.80;;
60919;SDS011;59039;52.108;19.942;2024-02-04T01:44:03;7.90;;;3.40;;
60919;SDS011;59039;52.108;19.942;2024-02-04T01:46:28;11.20;;;3.40;;
60919;SDS011;59039;52.108;19.942;2024-02-04T01:48:54;13.70;;;4.20;;
60919;SDS011;59039;52.108;19.942;2024-02-04T01:51:20;11.50;;;3.60;;
60919;SDS011;59039;52.108;19.942;2024-02-04T01:53:46;11.10;;;3.20;;
60919;SDS011;59039;52.108;19.942;2024-02-04T01:56:11;9.60;;;3.10;;
60919;SDS011;59039;52.108;19.942;2024-02-04T01:58:37;9.80;;;3.70;;
60919;SDS011;59039;52.108;19.942;2024-02-04T02:01:03;10.50;;;3.50;;
60919;SDS011;59039;52.108;19.942;2024-02-04T02:03:28;13.30;;;5.00;;
60919;SDS011;59039;52.108;19.942;2024-02-04T02:05:56;12.20;;;3.50;;
60919;SDS011;59039;52.108;19.942;2024-02-04T02:08:22;11.60;;;3.40;;
60919;SDS011;59039;52.108;19.942;2024-02-04T02:10:48;11.60;;;3.70;;
60919;SDS011;59039;52.108;19.942;2024-02-04T02:13:17;7.90;;;3.10;;
60919;SDS011;59039;52.108;19.942;2024-02-04T02:15:54;9.70;;;3.40;;
60919;SDS011;59039;52.108;19.942;2024-02-04T02:18:47;8.00;;;3.90;;
60919;SDS011;59039;52.108;19.942;2024-02-04T02:21:30;12.90;;;4.60;;
60919;SDS011;59039;52.108;19.942;2024-02-04T02:26:49;11.90;;;4.40;;
60919;SDS011;59039;52.108;19.942;2024-02-04T02:29:15;11.20;;;5.10;;
60919;SDS011;59039;52.108;19.942;2024-02-04T02:31:40;9.40;;;4.70;;
60919;SDS011;59039;52.108;19.942;2024-02-04T02:34:07;12.40;;;4.50;;
60919;SDS011;59039;52.108;19.942;2024-02-04T02:39:25;11.00;;;4.20;;
60919;SDS011;59039;52.108;19.942;2024-02-04T02:42:05;12.10;;;4.30;;
60919;SDS011;59039;52.108;19.942;2024-02-04T02:44:30;8.90;;;3.80;;
60919;SDS011;59039;52.108;19.942;2024-02-04T02:46:57;11.70;;;3.40;;
60919;SDS011;59039;52.108;19.942;2024-02-04T02:49:25;11.60;;;3.80;;
60919;SDS011;59039;52.108;19.942;2024-02-04T02:51:50;11.60;;;3.60;;
60919;SDS011;59039;52.108;19.942;2024-02-04T02:54:15;11.20;;;4.50;;
60919;SDS011;59039;52.108;19.942;2024-02-04T02:56:41;10.80;;;3.90;;
60919;SDS011;59039;52.108;19.942;2024-02-04T02:59:06;13.10;;;3.60;;
60919;SDS011;59039;52.108;19.942;2024-02-04T03:01:31;9.80;;;3.40;;
60919;SDS011;59039;52.108;19.942;2024-02-04T03:03:56;8.30;;;3.80;;
60919;SDS011;59039;52.108;19.942;2024-02-04T03:06:21;10.80;;;3.30;;
60919;SDS011;59039;52.108;19.942;2024-02-04T03:08:47;12.10;;;3.60;;
60919;SDS011;59039;52.108;19.942;2024-02-04T03:11:12;10.00;;;3.30;;
60919;SDS011;59039;52.108;19.942;2024-02-04T03:13:38;8.40;;;2.80;;
60919;SDS011;59039;52.108;19.942;2024-02-04T03:16:04;12.30;;;5.40;;
60919;SDS011;59039;52.108;19.942;2024-02-04T03:18:29;7.80;;;4.00;;
60919;SDS011;59039;52.108;19.942;2024-02-04T03:20:54;12.20;;;3.60;;
60919;SDS011;59039;52.108;19.942;2024-02-04T03:23:19;16.40;;;4.40;;
60919;SDS011;59039;52.108;19.942;2024-02-04T03:25:45;14.10;;;4.00;;
60919;SDS011;59039;52.108;19.942;2024-02-04T03:28:10;12.40;;;3.70;;
60919;SDS011;59039;52.108;19.942;2024-02-04T03:30:35;14.20;;;4.10;;
60919;SDS011;59039;52.108;19.942;2024-02-04T03:33:00;11.00;;;3.50;;
60919;SDS011;59039;52.108;19.942;2024-02-04T03:35:25;11.80;;;3.60;;
60919;SDS011;59039;52.108;19.942;2024-02-04T03:37:51;14.50;;;3.20;;
60919;SDS011;59039;52.108;19.942;2024-02-04T03:40:16;8.80;;;3.40;;
60919;SDS011;59039;52.108;19.942;2024-02-04T03:42:42;17.20;;;3.80;;
60919;SDS011;59039;52.108;19.942;2024-02-04T03:45:07;9.60;;;4.20;;
60919;SDS011;59039;52.108;19.942;2024-02-04T03:47:32;11.50;;;3.80;;
60919;SDS011;59039;52.108;19.942;2024-02-04T03:49:58;14.20;;;3.90;;
60919;SDS011;59039;52.108;19.942;2024-02-04T03:52:23;14.60;;;3.40;;
60919;SDS011;59039;52.108;19.942;2024-02-04T03:54:48;9.60;;;3.30;;
60919;SDS011;59039;52.108;19.942;2024-02-04T03:57:13;18.70;;;3.60;;
60919;SDS011;59039;52.108;19.942;2024-02-04T03:59:38;9.00;;;3.00;;
60919;SDS011;59039;52.108;19.942;2024-02-04T04:02:04;13.90;;;4.30;;
60919;SDS011;59039;52.108;19.942;2024-02-04T04:04:29;14.10;;;3.30;;
60919;SDS011;59039;52.108;19.942;2024-02-04T04:06:54;15.30;;;3.30;;
60919;SDS011;59039;52.108;19.942;2024-02-04T04:09:19;14.70;;;3.80;;
60919;SDS011;59039;52.108;19.942;2024-02-04T04:11:44;11.20;;;3.10;;
60919;SDS011;59039;52.108;19.942;2024-02-04T04:14:10;5.60;;;3.30;;
60919;SDS011;59039;52.108;19.942;2024-02-04T04:16:35;16.30;;;3.50;;
60919;SDS011;59039;52.108;19.942;2024-02-04T04:19:00;10.40;;;3.30;;
60919;SDS011;59039;52.108;19.942;2024-02-04T04:21:25;10.70;;;2.80;;
60919;SDS011;59039;52.108;19.942;2024-02-04T04:23:51;15.50;;;3.40;;
60919;SDS011;59039;52.108;19.942;2024-02-04T04:26:16;9.90;;;3.20;;
60919;SDS011;59039;52.108;19.942;2024-02-04T04:28:41;15.80;;;3.60;;
60919;SDS011;59039;52.108;19.942;2024-02-04T04:31:06;10.30;;;3.60;;
60919;SDS011;59039;52.108;19.942;2024-02-04T04:33:32;10.70;;;3.70;;
60919;SDS011;59039;52.108;19.942;2024-02-04T04:35:57;30.70;;;9.80;;
60919;SDS011;59039;52.108;19.942;2024-02-04T04:38:22;21.40;;;6.50;;
60919;SDS011;59039;52.108;19.942;2024-02-04T04:40:47;14.00;;;4.90;;
60919;SDS011;59039;52.108;19.942;2024-02-04T04:43:13;12.00;;;5.10;;
60919;SDS011;59039;52.108;19.942;2024-02-04T04:45:38;15.70;;;4.70;;
60919;SDS011;59039;52.108;19.942;2024-02-04T04:48:03;17.30;;;3.70;;
60919;SDS011;59039;52.108;19.942;2024-02-04T04:50:29;28.30;;;8.90;;
60919;SDS011;59039;52.108;19.942;2024-02-04T04:52:54;27.60;;;8.20;;
60919;SDS011;59039;52.108;19.942;2024-02-04T04:55:19;23.60;;;6.60;;
60919;SDS011;59039;52.108;19.942;2024-02-04T04:57:45;27.10;;;6.00;;
60919;SDS011;59039;52.108;19.942;2024-02-04T05:00:10;29.30;;;5.30;;
60919;SDS011;59039;52.108;19.942;2024-02-04T05:02:36;26.10;;;6.20;;
60919;SDS011;59039;52.108;19.942;2024-02-04T05:05:01;17.50;;;4.10;;
60919;SDS011;59039;52.108;19.942;2024-02-04T05:07:27;15.70;;;5.30;;
60919;SDS011;59039;52.108;19.942;2024-02-04T05:09:52;30.00;;;5.80;;
60919;SDS011;59039;52.108;19.942;2024-02-04T05:12:17;20.00;;;5.80;;
60919;SDS011;59039;52.108;19.942;2024-02-04T05:14:43;22.00;;;4.30;;
60919;SDS011;59039;52.108;19.942;2024-02-04T05:17:08;13.00;;;3.50;;
60919;SDS011;59039;52.108;19.942;2024-02-04T05:19:33;17.50;;;3.90;;
60919;SDS011;59039;52.108;19.942;2024-02-04T05:21:58;22.10;;;4.10;;
60919;SDS011;59039;52.108;19.942;2024-02-04T05:24:23;16.80;;;4.10;;
60919;SDS011;59039;52.108;19.942;2024-02-04T05:26:49;16.00;;;3.90;;
60919;SDS011;59039;52.108;19.942;2024-02-04T05:29:14;14.30;;;4.50;;
60919;SDS011;59039;52.108;19.942;2024-02-04T05:31:40;15.40;;;3.60;;
60919;SDS011;59039;52.108;19.942;2024-02-04T05:34:08;14.00;;;3.70;;
60919;SDS011;59039;52.108;19.942;2024-02-04T05:36:33;16.90;;;4.10;;
60919;SDS011;59039;52.108;19.942;2024-02-04T05:39:12;14.10;;;3.30;;
60919;SDS011;59039;52.108;19.942;2024-02-04T05:41:38;14.00;;;3.40;;
60919;SDS011;59039;52.108;19.942;2024-02-04T05:44:04;13.10;;;3.00;;
60919;SDS011;59039;52.108;19.942;2024-02-04T05:46:29;12.70;;;3.10;;
60919;SDS011;59039;52.108;19.942;2024-02-04T05:48:55;7.80;;;3.50;;
60919;SDS011;59039;52.108;19.942;2024-02-04T05:51:20;12.10;;;3.00;;
60919;SDS011;59039;52.108;19.942;2024-02-04T05:53:46;14.90;;;3.20;;
60919;SDS011;59039;52.108;19.942;2024-02-04T05:56:12;11.10;;;3.90;;
60919;SDS011;59039;52.108;19.942;2024-02-04T05:58:37;12.60;;;3.30;;
60919;SDS011;59039;52.108;19.942;2024-02-04T06:01:02;12.20;;;3.70;;
60919;SDS011;59039;52.108;19.942;2024-02-04T06:03:27;12.70;;;3.60;;
60919;SDS011;59039;52.108;19.942;2024-02-04T06:05:53;13.50;;;3.40;;
60919;SDS011;59039;52.108;19.942;2024-02-04T06:08:18;16.90;;;3.90;;
60919;SDS011;59039;52.108;19.942;2024-02-04T06:10:43;9.80;;;3.70;;
60919;SDS011;59039;52.108;19.942;2024-02-04T06:13:08;11.20;;;3.60;;
60919;SDS011;59039;52.108;19.942;2024-02-04T06:15:33;9.80;;;3.70;;
60919;SDS011;59039;52.108;19.942;2024-02-04T06:17:59;20.20;;;5.30;;
60919;SDS011;59039;52.108;19.942;2024-02-04T06:20:24;14.50;;;4.60;;
60919;SDS011;59039;52.108;19.942;2024-02-04T06:22:49;9.20;;;4.50;;
60919;SDS011;59039;52.108;19.942;2024-02-04T06:25:14;19.40;;;4.90;;
60919;SDS011;59039;52.108;19.942;2024-02-04T06:27:39;18.40;;;5.60;;
60919;SDS011;59039;52.108;19.942;2024-02-04T06:30:05;17.30;;;5.40;;
60919;SDS011;59039;52.108;19.942;2024-02-04T06:32:31;19.50;;;4.90;;
60919;SDS011;59039;52.108;19.942;2024-02-04T06:34:56;21.70;;;5.50;;
60919;SDS011;59039;52.108;19.942;2024-02-04T06:37:21;16.30;;;4.20;;
60919;SDS011;59039;52.108;19.942;2024-02-04T06:39:46;16.20;;;6.40;;
60919;SDS011;59039;52.108;19.942;2024-02-04T06:42:12;22.20;;;6.70;;
60919;SDS011;59039;52.108;19.942;2024-02-04T06:44:37;20.60;;;6.90;;
60919;SDS011;59039;52.108;19.942;2024-02-04T06:47:03;24.40;;;7.10;;
60919;SDS011;59039;52.108;19.942;2024-02-04T06:49:28;25.40;;;6.60;;
60919;SDS011;59039;52.108;19.942;2024-02-04T06:51:53;25.80;;;5.60;;
60919;SDS011;59039;52.108;19.942;2024-02-04T06:54:18;18.90;;;5.80;;
60919;SDS011;59039;52.108;19.942;2024-02-04T06:56:43;26.20;;;7.10;;
60919;SDS011;59039;52.108;19.942;2024-02-04T06:59:09;31.00;;;6.40;;
60919;SDS011;59039;52.108;19.942;2024-02-04T07:01:34;15.30;;;5.70;;
60919;SDS011;59039;52.108;19.942;2024-02-04T07:03:59;21.90;;;6.00;;
60919;SDS011;59039;52.108;19.942;2024-02-04T07:06:24;21.50;;;5.50;;
60919;SDS011;59039;52.108;19.942;2024-02-04T07:08:49;20.10;;;6.80;;
60919;SDS011;59039;52.108;19.942;2024-02-04T07:11:15;26.00;;;7.30;;
60919;SDS011;59039;52.108;19.942;2024-02-04T07:13:40;23.90;;;8.40;;
60919;SDS011;59039;52.108;19.942;2024-02-04T07:16:05;29.80;;;8.10;;
60919;SDS011;59039;52.108;19.942;2024-02-04T07:18:30;24.50;;;8.00;;
60919;SDS011;59039;52.108;19.942;2024-02-04T07:20:56;23.20;;;8.60;;
60919;SDS011;59039;52.108;19.942;2024-02-04T07:23:21;34.00;;;13.30;;
60919;SDS011;59039;52.108;19.942;2024-02-04T07:25:46;20.90;;;7.50;;
60919;SDS011;59039;52.108;19.942;2024-02-04T07:28:11;23.70;;;6.60;;
60919;SDS011;59039;52.108;19.942;2024-02-04T07:30:36;43.20;;;10.90;;
60919;SDS011;59039;52.108;19.942;2024-02-04T07:33:02;36.60;;;10.30;;
60919;SDS011;59039;52.108;19.942;2024-02-04T07:35:27;31.20;;;8.40;;
60919;SDS011;59039;52.108;19.942;2024-02-04T07:37:52;30.20;;;9.20;;
60919;SDS011;59039;52.108;19.942;2024-02-04T07:40:17;25.50;;;8.10;;
60919;SDS011;59039;52.108;19.942;2024-02-04T07:42:43;30.00;;;8.50;;
60919;SDS011;59039;52.108;19.942;2024-02-04T07:45:08;28.60;;;7.80;;
60919;SDS011;59039;52.108;19.942;2024-02-04T07:47:34;29.10;;;8.10;;
60919;SDS011;59039;52.108;19.942;2024-02-04T07:50:00;23.90;;;6.90;;
60919;SDS011;59039;52.108;19.942;2024-02-04T07:52:25;26.50;;;7.80;;
60919;SDS011;59039;52.108;19.942;2024-02-04T07:54:50;25.20;;;8.00;;
60919;SDS011;59039;52.108;19.942;2024-02-04T07:57:15;27.10;;;7.20;;
60919;SDS011;59039;52.108;19.942;2024-02-04T07:59:40;27.60;;;7.60;;
60919;SDS011;59039;52.108;19.942;2024-02-04T08:02:06;23.70;;;6.40;;
60919;SDS011;59039;52.108;19.942;2024-02-04T08:04:31;30.40;;;7.90;;
60919;SDS011;59039;52.108;19.942;2024-02-04T08:06:56;20.70;;;6.60;;
60919;SDS011;59039;52.108;19.942;2024-02-04T08:09:21;26.80;;;6.90;;
60919;SDS011;59039;52.108;19.942;2024-02-04T08:11:47;21.90;;;5.50;;
60919;SDS011;59039;52.108;19.942;2024-02-04T08:14:12;25.50;;;6.20;;
60919;SDS011;59039;52.108;19.942;2024-02-04T08:16:37;19.20;;;7.20;;
60919;SDS011;59039;52.108;19.942;2024-02-04T08:19:02;25.30;;;6.80;;
60919;SDS011;59039;52.108;19.942;2024-02-04T08:21:28;28.60;;;6.80;;
60919;SDS011;59039;52.108;19.942;2024-02-04T08:23:53;26.90;;;7.30;;
60919;SDS011;59039;52.108;19.942;2024-02-04T08:26:18;19.60;;;6.80;;
60919;SDS011;59039;52.108;19.942;2024-02-04T08:28:44;29.00;;;7.00;;
60919;SDS011;59039;52.108;19.942;2024-02-04T08:31:09;25.60;;;8.10;;
60919;SDS011;59039;52.108;19.942;2024-02-04T08:33:34;26.60;;;8.40;;
60919;SDS011;59039;52.108;19.942;2024-02-04T08:35:59;32.00;;;8.70;;
60919;SDS011;59039;52.108;19.942;2024-02-04T08:38:24;28.20;;;7.60;;
60919;SDS011;59039;52.108;19.942;2024-02-04T08:40:50;30.40;;;8.10;;
60919;SDS011;59039;52.108;19.942;2024-02-04T08:43:15;25.30;;;6.70;;
60919;SDS011;59039;52.108;19.942;2024-02-04T08:45:41;21.60;;;5.30;;
60919;SDS011;59039;52.108;19.942;2024-02-04T08:48:06;17.70;;;5.80;;
60919;SDS011;59039;52.108;19.942;2024-02-04T08:50:32;23.30;;;5.60;;
60919;SDS011;59039;52.108;19.942;2024-02-04T08:52:57;22.50;;;6.00;;
60919;SDS011;59039;52.108;19.942;2024-02-04T08:55:23;23.60;;;6.50;;
60919;SDS011;59039;52.108;19.942;2024-02-04T08:57:48;21.30;;;6.70;;
60919;SDS011;59039;52.108;19.942;2024-02-04T09:00:14;32.60;;;6.10;;
60919;SDS011;59039;52.108;19.942;2024-02-04T09:02:40;20.50;;;6.00;;
60919;SDS011;59039;52.108;19.942;2024-02-04T09:05:05;18.80;;;5.60;;
60919;SDS011;59039;52.108;19.942;2024-02-04T09:07:31;24.00;;;5.70;;
60919;SDS011;59039;52.108;19.942;2024-02-04T09:09:56;19.00;;;5.90;;
60919;SDS011;59039;52.108;19.942;2024-02-04T09:12:21;19.20;;;6.10;;
60919;SDS011;59039;52.108;19.942;2024-02-04T09:14:46;24.20;;;6.40;;
60919;SDS011;59039;52.108;19.942;2024-02-04T09:17:11;20.00;;;6.60;;
60919;SDS011;59039;52.108;19.942;2024-02-04T09:19:37;31.20;;;7.40;;
60919;SDS011;59039;52.108;19.942;2024-02-04T09:22:02;34.90;;;10.80;;
60919;SDS011;59039;52.108;19.942;2024-02-04T09:24:27;23.80;;;7.70;;
60919;SDS011;59039;52.108;19.942;2024-02-04T09:26:54;27.10;;;7.80;;
60919;SDS011;59039;52.108;19.942;2024-02-04T09:29:20;24.80;;;7.10;;
60919;SDS011;59039;52.108;19.942;2024-02-04T09:31:45;22.70;;;6.40;;
60919;SDS011;59039;52.108;19.942;2024-02-04T09:34:10;22.30;;;6.30;;
60919;SDS011;59039;52.108;19.942;2024-02-04T09:36:36;21.10;;;6.40;;
60919;SDS011;59039;52.108;19.942;2024-02-04T09:39:01;25.80;;;8.40;;
60919;SDS011;59039;52.108;19.942;2024-02-04T09:41:26;22.80;;;7.70;;
60919;SDS011;59039;52.108;19.942;2024-02-04T09:43:51;37.50;;;12.90;;
60919;SDS011;59039;52.108;19.942;2024-02-04T09:46:17;70.90;;;21.60;;
60919;SDS011;59039;52.108;19.942;2024-02-04T09:48:43;66.70;;;20.30;;
60919;SDS011;59039;52.108;19.942;2024-02-04T09:51:09;96.50;;;24.80;;
60919;SDS011;59039;52.108;19.942;2024-02-04T09:53:35;47.60;;;14.00;;
60919;SDS011;59039;52.108;19.942;2024-02-04T09:56:04;40.90;;;13.80;;
60919;SDS011;59039;52.108;19.942;2024-02-04T09:58:30;34.00;;;10.10;;
60919;SDS011;59039;52.108;19.942;2024-02-04T10:00:55;46.10;;;13.00;;
60919;SDS011;59039;52.108;19.942;2024-02-04T10:03:20;45.00;;;12.50;;
60919;SDS011;59039;52.108;19.942;2024-02-04T10:05:46;39.60;;;11.80;;
60919;SDS011;59039;52.108;19.942;2024-02-04T10:08:11;34.30;;;11.30;;
60919;SDS011;59039;52.108;19.942;2024-02-04T10:10:37;27.40;;;10.80;;
60919;SDS011;59039;52.108;19.942;2024-02-04T10:13:06;38.70;;;12.20;;
60919;SDS011;59039;52.108;19.942;2024-02-04T10:15:33;44.80;;;13.00;;
60919;SDS011;59039;52.108;19.942;2024-02-04T10:17:58;48.80;;;14.50;;
60919;SDS011;59039;52.108;19.942;2024-02-04T10:20:23;33.10;;;11.80;;
60919;SDS011;59039;52.108;19.942;2024-02-04T10:22:48;31.30;;;10.60;;
60919;SDS011;59039;52.108;19.942;2024-02-04T10:25:14;39.80;;;11.90;;
60919;SDS011;59039;52.108;19.942;2024-02-04T10:27:39;43.70;;;13.90;;
60919;SDS011;59039;52.108;19.942;2024-02-04T10:30:06;37.40;;;14.10;;
60919;SDS011;59039;52.108;19.942;2024-02-04T10:32:32;43.90;;;14.10;;
60919;SDS011;59039;52.108;19.942;2024-02-04T10:34:57;44.40;;;14.50;;
60919;SDS011;59039;52.108;19.942;2024-02-04T10:37:23;47.70;;;13.90;;
60919;SDS011;59039;52.108;19.942;2024-02-04T10:39:48;39.50;;;12.70;;
60919;SDS011;59039;52.108;19.942;2024-02-04T10:42:14;38.90;;;12.30;;
60919;SDS011;59039;52.108;19.942;2024-02-04T10:44:42;40.20;;;15.30;;
60919;SDS011;59039;52.108;19.942;2024-02-04T10:47:13;41.80;;;16.00;;
60919;SDS011;59039;52.108;19.942;2024-02-04T10:49:43;36.70;;;15.80;;
60919;SDS011;59039;52.108;19.942;2024-02-04T10:52:14;40.40;;;14.60;;
60919;SDS011;59039;52.108;19.942;2024-02-04T10:54:39;40.90;;;15.50;;
60919;SDS011;59039;52.108;19.942;2024-02-04T10:57:07;51.50;;;17.90;;
60919;SDS011;59039;52.108;19.942;2024-02-04T10:59:36;39.30;;;14.70;;
60919;SDS011;59039;52.108;19.942;2024-02-04T11:02:02;46.20;;;14.60;;
60919;SDS011;59039;52.108;19.942;2024-02-04T11:04:30;31.90;;;13.10;;
60919;SDS011;59039;52.108;19.942;2024-02-04T11:06:57;42.40;;;15.90;;
60919;SDS011;59039;52.108;19.942;2024-02-04T11:09:23;49.00;;;16.60;;
60919;SDS011;59039;52.108;19.942;2024-02-04T11:11:49;46.80;;;15.90;;
60919;SDS011;59039;52.108;19.942;2024-02-04T11:14:16;34.60;;;14.30;;
60919;SDS011;59039;52.108;19.942;2024-02-04T11:19:23;52.80;;;18.00;;
60919;SDS011;59039;52.108;19.942;2024-02-04T11:22:05;45.40;;;17.70;;
60919;SDS011;59039;52.108;19.942;2024-02-04T11:24:59;54.30;;;17.20;;
60919;SDS011;59039;52.108;19.942;2024-02-04T11:27:43;48.60;;;16.70;;
60919;SDS011;59039;52.108;19.942;2024-02-04T11:30:08;60.10;;;19.90;;
60919;SDS011;59039;52.108;19.942;2024-02-04T11:32:37;55.80;;;21.60;;
60919;SDS011;59039;52.108;19.942;2024-02-04T11:35:02;56.20;;;22.20;;
60919;SDS011;59039;52.108;19.942;2024-02-04T11:37:28;48.50;;;20.90;;
60919;SDS011;59039;52.108;19.942;2024-02-04T11:39:54;49.00;;;18.10;;
60919;SDS011;59039;52.108;19.942;2024-02-04T11:42:25;49.90;;;19.10;;
60919;SDS011;59039;52.108;19.942;2024-02-04T11:45:09;59.70;;;19.70;;
60919;SDS011;59039;52.108;19.942;2024-02-04T11:47:36;51.30;;;18.40;;
60919;SDS011;59039;52.108;19.942;2024-02-04T11:50:02;48.00;;;16.00;;
60919;SDS011;59039;52.108;19.942;2024-02-04T11:52:27;53.70;;;15.00;;
60919;SDS011;59039;52.108;19.942;2024-02-04T11:54:53;34.10;;;13.80;;
60919;SDS011;59039;52.108;19.942;2024-02-04T11:57:18;41.30;;;14.30;;
60919;SDS011;59039;52.108;19.942;2024-02-04T11:59:44;38.40;;;14.70;;
60919;SDS011;59039;52.108;19.942;2024-02-04T12:02:10;37.90;;;12.70;;
60919;SDS011;59039;52.108;19.942;2024-02-04T12:04:36;41.30;;;14.50;;
60919;SDS011;59039;52.108;19.942;2024-02-04T12:07:01;52.90;;;14.50;;
60919;SDS011;59039;52.108;19.942;2024-02-04T12:09:27;51.30;;;15.10;;
60919;SDS011;59039;52.108;19.942;2024-02-04T12:11:53;51.50;;;18.90;;
60919;SDS011;59039;52.108;19.942;2024-02-04T12:14:19;80.70;;;26.00;;
60919;SDS011;59039;52.108;19.942;2024-02-04T12:16:44;43.30;;;16.70;;
60919;SDS011;59039;52.108;19.942;2024-02-04T12:19:09;32.60;;;11.20;;
60919;SDS011;59039;52.108;19.942;2024-02-04T12:21:35;31.40;;;10.80;;
60919;SDS011;59039;52.108;19.942;2024-02-04T12:24:00;33.10;;;11.00;;
60919;SDS011;59039;52.108;19.942;2024-02-04T12:26:25;32.80;;;11.70;;
60919;SDS011;59039;52.108;19.942;2024-02-04T12:28:50;58.60;;;18.20;;
60919;SDS011;59039;52.108;19.942;2024-02-04T12:31:17;55.10;;;17.50;;
60919;SDS011;59039;52.108;19.942;2024-02-04T12:33:52;48.10;;;15.80;;
60919;SDS011;59039;52.108;19.942;2024-02-04T12:36:19;65.90;;;17.40;;
60919;SDS011;59039;52.108;19.942;2024-02-04T12:38:49;49.30;;;15.10;;
60919;SDS011;59039;52.108;19.942;2024-02-04T12:41:15;49.40;;;17.10;;
60919;SDS011;59039;52.108;19.942;2024-02-04T12:43:41;42.20;;;14.30;;
60919;SDS011;59039;52.108;19.942;2024-02-04T12:46:06;36.60;;;13.00;;
60919;SDS011;59039;52.108;19.942;2024-02-04T12:48:31;34.80;;;13.10;;
60919;SDS011;59039;52.108;19.942;2024-02-04T12:50:56;37.40;;;13.00;;
60919;SDS011;59039;52.108;19.942;2024-02-04T12:53:21;37.70;;;9.90;;
60919;SDS011;59039;52.108;19.942;2024-02-04T12:55:47;36.10;;;10.40;;
60919;SDS011;59039;52.108;19.942;2024-02-04T12:58:12;33.70;;;11.60;;
60919;SDS011;59039;52.108;19.942;2024-02-04T13:00:38;29.40;;;11.50;;
60919;SDS011;59039;52.108;19.942;2024-02-04T13:03:04;30.60;;;11.80;;
60919;SDS011;59039;52.108;19.942;2024-02-04T13:05:31;25.60;;;8.30;;
60919;SDS011;59039;52.108;19.942;2024-02-04T13:08:00;22.90;;;8.30;;
60919;SDS011;59039;52.108;19.942;2024-02-04T13:10:26;35.80;;;10.00;;
60919;SDS011;59039;52.108;19.942;2024-02-04T13:13:02;31.50;;;9.40;;
60919;SDS011;59039;52.108;19.942;2024-02-04T13:15:32;38.00;;;11.20;;
60919;SDS011;59039;52.108;19.942;2024-02-04T13:18:02;30.90;;;8.50;;
60919;SDS011;59039;52.108;19.942;2024-02-04T13:20:27;41.60;;;13.40;;
60919;SDS011;59039;52.108;19.942;2024-02-04T13:22:52;38.30;;;11.60;;
60919;SDS011;59039;52.108;19.942;2024-02-04T13:25:18;34.20;;;14.30;;
60919;SDS011;59039;52.108;19.942;2024-02-04T13:27:43;38.00;;;12.80;;
60919;SDS011;59039;52.108;19.942;2024-02-04T13:30:08;32.10;;;10.90;;
60919;SDS011;59039;52.108;19.942;2024-02-04T13:32:33;23.30;;;10.00;;
60919;SDS011;59039;52.108;19.942;2024-02-04T13:34:59;27.30;;;9.60;;
60919;SDS011;59039;52.108;19.942;2024-02-04T13:37:24;17.20;;;7.70;;
60919;SDS011;59039;52.108;19.942;2024-02-04T13:39:49;16.80;;;6.80;;
60919;SDS011;59039;52.108;19.942;2024-02-04T13:42:14;30.50;;;9.10;;
60919;SDS011;59039;52.108;19.942;2024-02-04T13:44:39;27.00;;;8.80;;
60919;SDS011;59039;52.108;19.942;2024-02-04T13:47:05;23.00;;;8.10;;
60919;SDS011;59039;52.108;19.942;2024-02-04T13:49:30;23.50;;;7.60;;
60919;SDS011;59039;52.108;19.942;2024-02-04T13:51:55;23.80;;;9.00;;
60919;SDS011;59039;52.108;19.942;2024-02-04T13:54:20;27.50;;;9.70;;
60919;SDS011;59039;52.108;19.942;2024-02-04T13:56:45;23.10;;;8.50;;
60919;SDS011;59039;52.108;19.942;2024-02-04T13:59:11;24.50;;;9.20;;
60919;SDS011;59039;52.108;19.942;2024-02-04T14:01:36;23.00;;;9.70;;
60919;SDS011;59039;52.108;19.942;2024-02-04T14:04:01;22.10;;;6.90;;
60919;SDS011;59039;52.108;19.942;2024-02-04T14:06:26;29.70;;;8.70;;
60919;SDS011;59039;52.108;19.942;2024-02-04T14:08:51;22.60;;;7.80;;
60919;SDS011;59039;52.108;19.942;2024-02-04T14:11:17;20.40;;;7.50;;
60919;SDS011;59039;52.108;19.942;2024-02-04T14:13:42;20.10;;;7.10;;
60919;SDS011;59039;52.108;19.942;2024-02-04T14:16:07;21.90;;;7.00;;
60919;SDS011;59039;52.108;19.942;2024-02-04T14:18:32;19.10;;;8.10;;
60919;SDS011;59039;52.108;19.942;2024-02-04T14:20:57;25.90;;;8.00;;